This is the latest recevied weather packets stored in our database for station/object BV1EV-2. If no packets are shown the sender has not sent any weather packets the latest 10 day(s).
| Time | Temp. | Humidity | Pressure | Rain* | Wind** | Luminosity | Snow |
|---|---|---|---|---|---|---|---|
| 1777897068 | 29.44° C | 44% | 1017.8 hPa | - | - | - | - |
| 1777895867 | 29.44° C | 43% | 1017.9 hPa | - | - | - | - |
| 1777894667 | 29.44° C | 43% | 1017.9 hPa | - | - | - | - |
| 1777893467 | 29.44° C | 42% | 1017.8 hPa | - | - | - | - |
| 1777892267 | 29.44° C | 41% | 1017.5 hPa | - | - | - | - |
| 1777891067 | 29.44° C | 40% | 1017.3 hPa | - | - | - | - |
| 1777889867 | 29.44° C | 38% | 1016.8 hPa | - | - | - | - |
| 1777888667 | 27.78° C | 43% | 1016.6 hPa | - | - | - | - |
| 1777887468 | 29.44° C | 37% | 1016.4 hPa | - | - | - | - |
| 1777886267 | 29.44° C | 38% | 1016 hPa | - | - | - | - |
| 1777885068 | 30° C | 38% | 1015.4 hPa | - | - | - | - |
| 1777883868 | 30° C | 40% | 1015.4 hPa | - | - | - | - |
| 1777882668 | 30.56° C | 44% | 1015.3 hPa | - | - | - | - |
| 1777881468 | 30.56° C | 44% | 1015.3 hPa | - | - | - | - |
| 1777880268 | 28.33° C | 50% | 1015.3 hPa | - | - | - | - |
| 1777879068 | 27.78° C | 51% | 1015.1 hPa | - | - | - | - |
| 1777877867 | 27.78° C | 51% | 1015.1 hPa | - | - | - | - |
| 1777876667 | 27.78° C | 52% | 1015.2 hPa | - | - | - | - |
| 1777875467 | 27.78° C | 51% | 1015.3 hPa | - | - | - | - |
| 1777874267 | 27.78° C | 51% | 1015.4 hPa | - | - | - | - |
| 1777873067 | 27.78° C | 51% | 1015.4 hPa | - | - | - | - |
| 1777871867 | 27.78° C | 51% | 1015.8 hPa | - | - | - | - |
| 1777870668 | 27.78° C | 51% | 1015.9 hPa | - | - | - | - |
| 1777869467 | 28.33° C | 50% | 1016 hPa | - | - | - | - |
| 1777868267 | 27.78° C | 49% | 1016.3 hPa | - | - | - | - |
* Rain since midnight (hover to see other rain measurements)
** Current wind speed in m/s (hover to see current wind gust speed)